sensor_id;sensor_type;location;lat;lon;timestamp;temperature;humidity
70762;DHT22;58360;0.000;0.000;2023-11-21T00:02:29;10.60;99.90
70762;DHT22;58360;0.000;0.000;2023-11-21T00:04:55;10.50;99.90
70762;DHT22;58360;0.000;0.000;2023-11-21T00:09:56;10.50;99.90
70762;DHT22;58360;0.000;0.000;2023-11-21T00:12:22;10.30;99.90
70762;DHT22;58360;0.000;0.000;2023-11-21T00:14:48;10.20;99.90
70762;DHT22;58360;0.000;0.000;2023-11-21T00:17:13;10.10;99.90
70762;DHT22;58360;0.000;0.000;2023-11-21T00:19:39;9.80;99.90
70762;DHT22;58360;0.000;0.000;2023-11-21T00:22:05;9.70;99.90
70762;DHT22;58360;0.000;0.000;2023-11-21T00:24:31;9.60;99.90
70762;DHT22;58360;0.000;0.000;2023-11-21T00:26:57;9.70;99.90
70762;DHT22;58360;0.000;0.000;2023-11-21T00:29:23;9.90;99.90
70762;DHT22;58360;0.000;0.000;2023-11-21T00:31:49;9.60;99.90
70762;DHT22;58360;0.000;0.000;2023-11-21T00:34:14;9.70;99.90
70762;DHT22;58360;0.000;0.000;2023-11-21T00:36:40;9.80;99.90
70762;DHT22;58360;0.000;0.000;2023-11-21T00:39:06;9.70;99.90
70762;DHT22;58360;0.000;0.000;2023-11-21T00:41:32;9.60;99.90
70762;DHT22;58360;0.000;0.000;2023-11-21T00:43:58;9.40;99.90
70762;DHT22;58360;0.000;0.000;2023-11-21T00:46:25;9.70;99.90
70762;DHT22;58360;0.000;0.000;2023-11-21T00:48:53;9.80;99.90
70762;DHT22;58360;0.000;0.000;2023-11-21T00:51:19;10.10;99.90
70762;DHT22;58360;0.000;0.000;2023-11-21T00:53:45;10.10;99.90
70762;DHT22;58360;0.000;0.000;2023-11-21T00:56:12;10.40;99.90
70762;DHT22;58360;0.000;0.000;2023-11-21T00:58:38;10.20;99.90
70762;DHT22;58360;0.000;0.000;2023-11-21T01:01:04;10.10;99.90
70762;DHT22;58360;0.000;0.000;2023-11-21T01:03:30;10.10;99.90
70762;DHT22;58360;0.000;0.000;2023-11-21T01:05:56;10.10;99.90
70762;DHT22;58360;0.000;0.000;2023-11-21T01:08:21;10.00;99.90
70762;DHT22;58360;0.000;0.000;2023-11-21T01:10:49;9.80;99.90
70762;DHT22;58360;0.000;0.000;2023-11-21T01:13:15;9.90;99.90
70762;DHT22;58360;0.000;0.000;2023-11-21T01:15:41;10.00;99.90
70762;DHT22;58360;0.000;0.000;2023-11-21T01:18:07;10.00;99.90
70762;DHT22;58360;0.000;0.000;2023-11-21T01:20:34;10.10;99.90
70762;DHT22;58360;0.000;0.000;2023-11-21T01:22:59;9.90;99.90
70762;DHT22;58360;0.000;0.000;2023-11-21T01:25:25;9.80;99.90
70762;DHT22;58360;0.000;0.000;2023-11-21T01:27:51;10.00;99.90
70762;DHT22;58360;0.000;0.000;2023-11-21T01:30:17;9.80;99.90
70762;DHT22;58360;0.000;0.000;2023-11-21T01:32:43;9.90;99.90
70762;DHT22;58360;0.000;0.000;2023-11-21T01:35:09;9.60;99.90
70762;DHT22;58360;0.000;0.000;2023-11-21T01:37:38;9.60;99.90
70762;DHT22;58360;0.000;0.000;2023-11-21T01:40:04;9.50;99.90
70762;DHT22;58360;0.000;0.000;2023-11-21T01:42:39;9.40;99.90
70762;DHT22;58360;0.000;0.000;2023-11-21T01:45:05;9.30;99.90
70762;DHT22;58360;0.000;0.000;2023-11-21T01:47:34;9.20;99.90
70762;DHT22;58360;0.000;0.000;2023-11-21T01:50:01;9.20;99.90
70762;DHT22;58360;0.000;0.000;2023-11-21T01:52:27;9.20;99.90
70762;DHT22;58360;0.000;0.000;2023-11-21T01:54:53;9.20;99.90
70762;DHT22;58360;0.000;0.000;2023-11-21T01:57:21;9.30;99.90
70762;DHT22;58360;0.000;0.000;2023-11-21T01:59:50;9.30;99.90
70762;DHT22;58360;0.000;0.000;2023-11-21T02:02:17;9.50;99.90
70762;DHT22;58360;0.000;0.000;2023-11-21T02:04:43;9.40;99.90
70762;DHT22;58360;0.000;0.000;2023-11-21T02:07:09;9.60;99.90
70762;DHT22;58360;0.000;0.000;2023-11-21T02:09:35;9.60;99.90
70762;DHT22;58360;0.000;0.000;2023-11-21T02:12:03;9.90;99.90
70762;DHT22;58360;0.000;0.000;2023-11-21T02:14:30;9.70;99.90
70762;DHT22;58360;0.000;0.000;2023-11-21T02:16:56;9.90;99.90
70762;DHT22;58360;0.000;0.000;2023-11-21T02:19:26;10.00;99.90
70762;DHT22;58360;0.000;0.000;2023-11-21T02:21:52;9.90;99.90
70762;DHT22;58360;0.000;0.000;2023-11-21T02:24:21;10.30;99.90
70762;DHT22;58360;0.000;0.000;2023-11-21T02:26:48;10.00;99.90
70762;DHT22;58360;0.000;0.000;2023-11-21T02:29:14;10.20;99.90
70762;DHT22;58360;0.000;0.000;2023-11-21T02:31:43;9.90;99.90
70762;DHT22;58360;0.000;0.000;2023-11-21T02:34:15;10.10;99.90
70762;DHT22;58360;0.000;0.000;2023-11-21T02:36:42;10.10;99.90
70762;DHT22;58360;0.000;0.000;2023-11-21T02:39:08;10.10;99.90
70762;DHT22;58360;0.000;0.000;2023-11-21T02:41:34;10.30;99.90
70762;DHT22;58360;0.000;0.000;2023-11-21T02:44:00;10.00;99.90
70762;DHT22;58360;0.000;0.000;2023-11-21T02:46:26;9.90;99.90
70762;DHT22;58360;0.000;0.000;2023-11-21T02:48:52;9.70;99.90
70762;DHT22;58360;0.000;0.000;2023-11-21T02:51:20;9.80;99.90
70762;DHT22;58360;0.000;0.000;2023-11-21T02:53:46;9.70;99.90
70762;DHT22;58360;0.000;0.000;2023-11-21T02:56:16;9.90;99.90
70762;DHT22;58360;0.000;0.000;2023-11-21T02:58:43;9.90;99.90
70762;DHT22;58360;0.000;0.000;2023-11-21T03:01:11;9.90;99.90
70762;DHT22;58360;0.000;0.000;2023-11-21T03:03:38;10.00;99.90
70762;DHT22;58360;0.000;0.000;2023-11-21T03:06:08;10.00;99.90
70762;DHT22;58360;0.000;0.000;2023-11-21T03:08:37;10.40;99.90
70762;DHT22;58360;0.000;0.000;2023-11-21T03:11:03;10.00;99.90
70762;DHT22;58360;0.000;0.000;2023-11-21T03:13:29;9.90;99.90
70762;DHT22;58360;0.000;0.000;2023-11-21T03:15:54;10.00;99.90
70762;DHT22;58360;0.000;0.000;2023-11-21T03:18:22;10.10;99.90
70762;DHT22;58360;0.000;0.000;2023-11-21T03:20:48;9.90;99.90
70762;DHT22;58360;0.000;0.000;2023-11-21T03:23:14;10.00;99.90
70762;DHT22;58360;0.000;0.000;2023-11-21T03:25:40;9.80;99.90
70762;DHT22;58360;0.000;0.000;2023-11-21T03:28:06;10.00;99.90
70762;DHT22;58360;0.000;0.000;2023-11-21T03:30:33;10.20;99.90
70762;DHT22;58360;0.000;0.000;2023-11-21T03:32:59;10.10;99.90
70762;DHT22;58360;0.000;0.000;2023-11-21T03:35:25;10.20;99.90
70762;DHT22;58360;0.000;0.000;2023-11-21T03:37:51;10.20;99.90
70762;DHT22;58360;0.000;0.000;2023-11-21T03:40:17;9.90;99.90
70762;DHT22;58360;0.000;0.000;2023-11-21T03:42:43;10.00;99.90
70762;DHT22;58360;0.000;0.000;2023-11-21T03:45:09;9.90;99.90
70762;DHT22;58360;0.000;0.000;2023-11-21T03:47:35;9.90;99.90
70762;DHT22;58360;0.000;0.000;2023-11-21T03:50:01;10.10;99.90
70762;DHT22;58360;0.000;0.000;2023-11-21T03:52:27;10.10;99.90
70762;DHT22;58360;0.000;0.000;2023-11-21T03:54:53;10.20;99.90
70762;DHT22;58360;0.000;0.000;2023-11-21T03:57:22;10.20;99.90
70762;DHT22;58360;0.000;0.000;2023-11-21T03:59:48;10.20;99.90
70762;DHT22;58360;0.000;0.000;2023-11-21T04:02:14;10.20;99.90
70762;DHT22;58360;0.000;0.000;2023-11-21T04:04:39;10.30;99.90
70762;DHT22;58360;0.000;0.000;2023-11-21T04:07:06;10.20;99.90
70762;DHT22;58360;0.000;0.000;2023-11-21T04:09:32;10.20;99.90
70762;DHT22;58360;0.000;0.000;2023-11-21T04:11:57;10.20;99.90
70762;DHT22;58360;0.000;0.000;2023-11-21T04:14:23;10.10;99.90
70762;DHT22;58360;0.000;0.000;2023-11-21T04:16:49;10.20;99.90
70762;DHT22;58360;0.000;0.000;2023-11-21T04:19:15;10.30;99.90
70762;DHT22;58360;0.000;0.000;2023-11-21T04:21:41;10.30;99.90
70762;DHT22;58360;0.000;0.000;2023-11-21T04:24:07;10.20;99.90
70762;DHT22;58360;0.000;0.000;2023-11-21T04:26:33;10.20;99.90
70762;DHT22;58360;0.000;0.000;2023-11-21T04:28:58;10.10;99.90
70762;DHT22;58360;0.000;0.000;2023-11-21T04:31:24;10.10;99.90
70762;DHT22;58360;0.000;0.000;2023-11-21T04:33:50;10.10;99.90
70762;DHT22;58360;0.000;0.000;2023-11-21T04:36:16;10.00;99.90
70762;DHT22;58360;0.000;0.000;2023-11-21T04:38:42;9.90;99.90
70762;DHT22;58360;0.000;0.000;2023-11-21T04:41:08;10.10;99.90
70762;DHT22;58360;0.000;0.000;2023-11-21T04:43:34;10.20;99.90
70762;DHT22;58360;0.000;0.000;2023-11-21T04:45:59;10.30;99.90
70762;DHT22;58360;0.000;0.000;2023-11-21T04:48:27;10.40;99.90
70762;DHT22;58360;0.000;0.000;2023-11-21T04:50:53;10.50;99.90
70762;DHT22;58360;0.000;0.000;2023-11-21T04:53:18;10.70;99.90
70762;DHT22;58360;0.000;0.000;2023-11-21T04:55:45;10.40;99.90
70762;DHT22;58360;0.000;0.000;2023-11-21T04:58:11;10.60;99.90
70762;DHT22;58360;0.000;0.000;2023-11-21T05:00:37;10.40;99.90
70762;DHT22;58360;0.000;0.000;2023-11-21T05:03:03;10.40;99.90
70762;DHT22;58360;0.000;0.000;2023-11-21T05:05:30;10.30;99.90
70762;DHT22;58360;0.000;0.000;2023-11-21T05:07:55;10.20;99.90
70762;DHT22;58360;0.000;0.000;2023-11-21T05:10:21;10.30;99.90
70762;DHT22;58360;0.000;0.000;2023-11-21T05:12:50;10.60;99.90
70762;DHT22;58360;0.000;0.000;2023-11-21T05:15:16;10.60;99.90
70762;DHT22;58360;0.000;0.000;2023-11-21T05:17:42;10.60;99.90
70762;DHT22;58360;0.000;0.000;2023-11-21T05:20:09;10.50;99.90
70762;DHT22;58360;0.000;0.000;2023-11-21T05:22:36;10.50;99.90
70762;DHT22;58360;0.000;0.000;2023-11-21T05:25:02;10.40;99.90
70762;DHT22;58360;0.000;0.000;2023-11-21T05:27:32;10.30;99.90
70762;DHT22;58360;0.000;0.000;2023-11-21T05:29:58;10.70;99.90
70762;DHT22;58360;0.000;0.000;2023-11-21T05:32:24;10.60;99.90
70762;DHT22;58360;0.000;0.000;2023-11-21T05:34:50;10.80;99.90
70762;DHT22;58360;0.000;0.000;2023-11-21T05:37:16;10.40;99.90
70762;DHT22;58360;0.000;0.000;2023-11-21T05:39:43;10.80;99.90
70762;DHT22;58360;0.000;0.000;2023-11-21T05:42:09;10.70;99.90
70762;DHT22;58360;0.000;0.000;2023-11-21T05:44:36;10.60;99.90
70762;DHT22;58360;0.000;0.000;2023-11-21T05:47:02;10.70;99.90
70762;DHT22;58360;0.000;0.000;2023-11-21T05:49:29;10.60;99.90
70762;DHT22;58360;0.000;0.000;2023-11-21T05:51:55;10.80;99.90
70762;DHT22;58360;0.000;0.000;2023-11-21T05:54:21;10.40;99.90
70762;DHT22;58360;0.000;0.000;2023-11-21T05:56:48;10.40;99.90
70762;DHT22;58360;0.000;0.000;2023-11-21T05:59:14;10.30;99.90
70762;DHT22;58360;0.000;0.000;2023-11-21T06:01:40;10.00;99.90
70762;DHT22;58360;0.000;0.000;2023-11-21T06:04:06;10.20;99.90
70762;DHT22;58360;0.000;0.000;2023-11-21T06:06:35;10.10;99.90
70762;DHT22;58360;0.000;0.000;2023-11-21T06:09:00;10.20;99.90
70762;DHT22;58360;0.000;0.000;2023-11-21T06:11:26;10.20;99.90
70762;DHT22;58360;0.000;0.000;2023-11-21T06:13:51;10.20;99.90
70762;DHT22;58360;0.000;0.000;2023-11-21T06:16:18;10.20;99.90
70762;DHT22;58360;0.000;0.000;2023-11-21T06:18:45;10.20;99.90
70762;DHT22;58360;0.000;0.000;2023-11-21T06:21:11;10.30;99.90
70762;DHT22;58360;0.000;0.000;2023-11-21T06:23:37;10.30;99.90
70762;DHT22;58360;0.000;0.000;2023-11-21T06:26:02;10.40;99.90
70762;DHT22;58360;0.000;0.000;2023-11-21T06:28:30;10.40;99.90
70762;DHT22;58360;0.000;0.000;2023-11-21T06:30:55;10.40;99.90
70762;DHT22;58360;0.000;0.000;2023-11-21T06:33:21;10.40;99.90
70762;DHT22;58360;0.000;0.000;2023-11-21T06:35:47;10.30;99.90
70762;DHT22;58360;0.000;0.000;2023-11-21T06:38:12;10.30;99.90
70762;DHT22;58360;0.000;0.000;2023-11-21T06:40:38;10.30;99.90
70762;DHT22;58360;0.000;0.000;2023-11-21T06:43:04;10.50;99.90
70762;DHT22;58360;0.000;0.000;2023-11-21T06:45:32;10.60;99.90
70762;DHT22;58360;0.000;0.000;2023-11-21T06:47:59;10.80;99.90
70762;DHT22;58360;0.000;0.000;2023-11-21T06:50:25;11.00;99.90
70762;DHT22;58360;0.000;0.000;2023-11-21T06:52:51;10.90;99.90
70762;DHT22;58360;0.000;0.000;2023-11-21T06:55:16;10.60;99.90
70762;DHT22;58360;0.000;0.000;2023-11-21T06:57:42;10.50;99.90
70762;DHT22;58360;0.000;0.000;2023-11-21T07:00:10;10.40;99.90
70762;DHT22;58360;0.000;0.000;2023-11-21T07:02:36;10.50;99.90
70762;DHT22;58360;0.000;0.000;2023-11-21T07:05:02;10.50;99.90
70762;DHT22;58360;0.000;0.000;2023-11-21T07:07:28;10.40;99.90
70762;DHT22;58360;0.000;0.000;2023-11-21T07:09:53;10.50;99.90
70762;DHT22;58360;0.000;0.000;2023-11-21T07:12:19;10.50;99.90
70762;DHT22;58360;0.000;0.000;2023-11-21T07:14:44;10.50;99.90
70762;DHT22;58360;0.000;0.000;2023-11-21T07:17:10;10.50;99.90
70762;DHT22;58360;0.000;0.000;2023-11-21T07:19:37;10.60;99.90
70762;DHT22;58360;0.000;0.000;2023-11-21T07:22:03;10.60;99.90
70762;DHT22;58360;0.000;0.000;2023-11-21T07:24:30;10.60;99.90
70762;DHT22;58360;0.000;0.000;2023-11-21T07:26:57;10.70;99.90
70762;DHT22;58360;0.000;0.000;2023-11-21T07:29:26;10.70;99.90
70762;DHT22;58360;0.000;0.000;2023-11-21T07:31:54;10.60;99.90
70762;DHT22;58360;0.000;0.000;2023-11-21T07:34:20;10.60;99.90
70762;DHT22;58360;0.000;0.000;2023-11-21T07:36:46;10.50;99.90
70762;DHT22;58360;0.000;0.000;2023-11-21T07:39:12;10.50;99.90
70762;DHT22;58360;0.000;0.000;2023-11-21T07:41:37;10.60;99.90
70762;DHT22;58360;0.000;0.000;2023-11-21T07:44:10;10.60;99.90
70762;DHT22;58360;0.000;0.000;2023-11-21T07:46:35;10.70;99.90
70762;DHT22;58360;0.000;0.000;2023-11-21T07:49:01;10.70;99.90
70762;DHT22;58360;0.000;0.000;2023-11-21T07:51:26;10.70;99.90
70762;DHT22;58360;0.000;0.000;2023-11-21T07:53:52;10.80;99.90
70762;DHT22;58360;0.000;0.000;2023-11-21T07:56:18;10.80;99.90
70762;DHT22;58360;0.000;0.000;2023-11-21T07:58:43;10.80;99.90
70762;DHT22;58360;0.000;0.000;2023-11-21T08:01:10;10.90;99.90
70762;DHT22;58360;0.000;0.000;2023-11-21T08:03:35;10.90;99.90
70762;DHT22;58360;0.000;0.000;2023-11-21T08:06:01;11.00;99.90
70762;DHT22;58360;0.000;0.000;2023-11-21T08:08:28;10.90;99.90
70762;DHT22;58360;0.000;0.000;2023-11-21T08:10:54;11.00;99.90
70762;DHT22;58360;0.000;0.000;2023-11-21T08:13:26;10.90;99.90
70762;DHT22;58360;0.000;0.000;2023-11-21T08:15:55;10.90;99.90
70762;DHT22;58360;0.000;0.000;2023-11-21T08:18:21;11.00;99.90
70762;DHT22;58360;0.000;0.000;2023-11-21T08:20:47;11.00;99.90
70762;DHT22;58360;0.000;0.000;2023-11-21T08:23:16;11.00;99.90
70762;DHT22;58360;0.000;0.000;2023-11-21T08:25:45;11.10;99.90
70762;DHT22;58360;0.000;0.000;2023-11-21T08:28:11;11.20;99.90
70762;DHT22;58360;0.000;0.000;2023-11-21T08:30:36;11.20;99.90
70762;DHT22;58360;0.000;0.000;2023-11-21T08:33:02;11.20;99.90
70762;DHT22;58360;0.000;0.000;2023-11-21T08:35:29;11.20;99.90
70762;DHT22;58360;0.000;0.000;2023-11-21T08:37:54;11.20;99.90
70762;DHT22;58360;0.000;0.000;2023-11-21T08:40:20;11.30;99.90
70762;DHT22;58360;0.000;0.000;2023-11-21T08:42:46;11.20;99.90
70762;DHT22;58360;0.000;0.000;2023-11-21T08:45:16;11.20;99.90
70762;DHT22;58360;0.000;0.000;2023-11-21T08:47:42;11.10;99.90
70762;DHT22;58360;0.000;0.000;2023-11-21T08:50:09;11.10;99.90
70762;DHT22;58360;0.000;0.000;2023-11-21T08:52:35;11.10;99.90
70762;DHT22;58360;0.000;0.000;2023-11-21T08:55:02;11.20;99.90
70762;DHT22;58360;0.000;0.000;2023-11-21T08:57:28;11.20;99.90
70762;DHT22;58360;0.000;0.000;2023-11-21T08:59:53;11.30;99.90
70762;DHT22;58360;0.000;0.000;2023-11-21T09:02:21;11.30;99.90
70762;DHT22;58360;0.000;0.000;2023-11-21T09:04:48;11.40;99.90
70762;DHT22;58360;0.000;0.000;2023-11-21T09:07:14;11.70;99.90
70762;DHT22;58360;0.000;0.000;2023-11-21T09:09:39;11.90;99.90
70762;DHT22;58360;0.000;0.000;2023-11-21T09:12:05;11.90;99.90
70762;DHT22;58360;0.000;0.000;2023-11-21T09:14:31;11.80;99.90
70762;DHT22;58360;0.000;0.000;2023-11-21T09:16:56;11.70;99.90
70762;DHT22;58360;0.000;0.000;2023-11-21T09:19:22;11.60;99.90
70762;DHT22;58360;0.000;0.000;2023-11-21T09:21:47;11.60;99.90
70762;DHT22;58360;0.000;0.000;2023-11-21T09:24:13;11.60;99.90
70762;DHT22;58360;0.000;0.000;2023-11-21T09:26:38;11.40;99.90
70762;DHT22;58360;0.000;0.000;2023-11-21T09:29:04;11.40;99.90
70762;DHT22;58360;0.000;0.000;2023-11-21T09:31:29;11.40;99.90
70762;DHT22;58360;0.000;0.000;2023-11-21T09:33:56;11.40;99.90
70762;DHT22;58360;0.000;0.000;2023-11-21T09:36:22;11.40;99.90
70762;DHT22;58360;0.000;0.000;2023-11-21T09:38:52;11.50;99.90
70762;DHT22;58360;0.000;0.000;2023-11-21T09:41:31;11.60;99.90
70762;DHT22;58360;0.000;0.000;2023-11-21T09:44:00;11.70;99.90
70762;DHT22;58360;0.000;0.000;2023-11-21T09:46:28;11.70;99.90
70762;DHT22;58360;0.000;0.000;2023-11-21T09:48:55;11.80;99.90
70762;DHT22;58360;0.000;0.000;2023-11-21T09:51:21;11.90;99.90
70762;DHT22;58360;0.000;0.000;2023-11-21T09:53:51;11.90;99.90
70762;DHT22;58360;0.000;0.000;2023-11-21T09:56:19;11.90;99.90
70762;DHT22;58360;0.000;0.000;2023-11-21T09:58:52;11.80;99.90
70762;DHT22;58360;0.000;0.000;2023-11-21T10:01:18;11.80;99.90
70762;DHT22;58360;0.000;0.000;2023-11-21T10:03:44;11.80;99.90
70762;DHT22;58360;0.000;0.000;2023-11-21T10:06:10;11.80;99.90
70762;DHT22;58360;0.000;0.000;2023-11-21T10:08:39;11.80;99.90
70762;DHT22;58360;0.000;0.000;2023-11-21T10:11:05;11.80;99.90
70762;DHT22;58360;0.000;0.000;2023-11-21T10:13:32;11.90;99.90
70762;DHT22;58360;0.000;0.000;2023-11-21T10:15:58;12.00;99.90
70762;DHT22;58360;0.000;0.000;2023-11-21T10:18:25;12.10;99.90
70762;DHT22;58360;0.000;0.000;2023-11-21T10:20:51;12.20;99.90
70762;DHT22;58360;0.000;0.000;2023-11-21T10:23:18;12.30;99.90
70762;DHT22;58360;0.000;0.000;2023-11-21T10:25:44;12.20;99.90
70762;DHT22;58360;0.000;0.000;2023-11-21T10:28:09;12.20;99.90
70762;DHT22;58360;0.000;0.000;2023-11-21T10:30:36;12.20;99.90
70762;DHT22;58360;0.000;0.000;2023-11-21T10:33:06;12.20;99.90
70762;DHT22;58360;0.000;0.000;2023-11-21T10:35:38;12.20;99.90
70762;DHT22;58360;0.000;0.000;2023-11-21T10:38:04;12.20;99.90
70762;DHT22;58360;0.000;0.000;2023-11-21T10:40:29;12.30;99.90
70762;DHT22;58360;0.000;0.000;2023-11-21T10:42:55;12.40;99.90
70762;DHT22;58360;0.000;0.000;2023-11-21T10:45:31;12.60;99.90
70762;DHT22;58360;0.000;0.000;2023-11-21T10:47:56;12.80;99.90
70762;DHT22;58360;0.000;0.000;2023-11-21T10:50:22;13.00;99.90
70762;DHT22;58360;0.000;0.000;2023-11-21T10:52:48;13.00;99.90
70762;DHT22;58360;0.000;0.000;2023-11-21T10:55:17;13.10;99.90
70762;DHT22;58360;0.000;0.000;2023-11-21T10:57:45;13.20;99.90
70762;DHT22;58360;0.000;0.000;2023-11-21T11:00:13;13.30;99.90
70762;DHT22;58360;0.000;0.000;2023-11-21T11:02:39;13.60;99.90
70762;DHT22;58360;0.000;0.000;2023-11-21T11:05:05;13.80;99.90
70762;DHT22;58360;0.000;0.000;2023-11-21T11:07:31;13.80;99.90
70762;DHT22;58360;0.000;0.000;2023-11-21T11:09:59;13.90;99.90
70762;DHT22;58360;0.000;0.000;2023-11-21T11:12:25;13.90;99.90
70762;DHT22;58360;0.000;0.000;2023-11-21T11:14:51;13.90;99.90
70762;DHT22;58360;0.000;0.000;2023-11-21T11:17:18;13.80;99.90
70762;DHT22;58360;0.000;0.000;2023-11-21T11:19:46;13.80;99.90
70762;DHT22;58360;0.000;0.000;2023-11-21T11:22:16;13.60;99.90
70762;DHT22;58360;0.000;0.000;2023-11-21T11:27:23;13.40;99.90
70762;DHT22;58360;0.000;0.000;2023-11-21T11:30:05;13.30;99.90
70762;DHT22;58360;0.000;0.000;2023-11-21T11:35:02;13.20;99.90
70762;DHT22;58360;0.000;0.000;2023-11-21T11:37:29;13.10;99.90
70762;DHT22;58360;0.000;0.000;2023-11-21T11:39:54;13.00;99.90
70762;DHT22;58360;0.000;0.000;2023-11-21T11:42:20;13.00;99.90
70762;DHT22;58360;0.000;0.000;2023-11-21T11:44:48;13.00;99.90
70762;DHT22;58360;0.000;0.000;2023-11-21T11:47:23;13.00;99.90
70762;DHT22;58360;0.000;0.000;2023-11-21T11:50:09;13.00;99.90
70762;DHT22;58360;0.000;0.000;2023-11-21T11:52:47;13.10;99.90
70762;DHT22;58360;0.000;0.000;2023-11-21T11:55:17;13.20;99.90
70762;DHT22;58360;0.000;0.000;2023-11-21T11:57:44;13.20;99.90
70762;DHT22;58360;0.000;0.000;2023-11-21T12:00:17;13.20;99.90
70762;DHT22;58360;0.000;0.000;2023-11-21T12:02:51;13.30;99.90
70762;DHT22;58360;0.000;0.000;2023-11-21T12:05:20;13.30;99.90
70762;DHT22;58360;0.000;0.000;2023-11-21T12:07:47;13.10;99.90
70762;DHT22;58360;0.000;0.000;2023-11-21T12:10:13;13.10;99.90
70762;DHT22;58360;0.000;0.000;2023-11-21T12:12:47;13.00;99.90
70762;DHT22;58360;0.000;0.000;2023-11-21T12:15:13;12.90;99.90
70762;DHT22;58360;0.000;0.000;2023-11-21T12:17:39;12.80;99.90
70762;DHT22;58360;0.000;0.000;2023-11-21T12:20:05;12.70;99.90
70762;DHT22;58360;0.000;0.000;2023-11-21T12:22:41;12.80;99.90
70762;DHT22;58360;0.000;0.000;2023-11-21T12:25:07;12.70;99.90
70762;DHT22;58360;0.000;0.000;2023-11-21T12:27:32;12.80;99.90
70762;DHT22;58360;0.000;0.000;2023-11-21T12:29:58;12.80;99.90
70762;DHT22;58360;0.000;0.000;2023-11-21T12:32:24;12.90;99.90
70762;DHT22;58360;0.000;0.000;2023-11-21T12:34:51;13.00;99.90
70762;DHT22;58360;0.000;0.000;2023-11-21T12:37:16;13.20;99.90
70762;DHT22;58360;0.000;0.000;2023-11-21T12:39:42;13.20;99.90
70762;DHT22;58360;0.000;0.000;2023-11-21T12:42:07;13.30;99.90
70762;DHT22;58360;0.000;0.000;2023-11-21T12:44:34;13.40;99.90
70762;DHT22;58360;0.000;0.000;2023-11-21T12:46:59;13.40;99.90
70762;DHT22;58360;0.000;0.000;2023-11-21T12:49:26;13.40;99.90
70762;DHT22;58360;0.000;0.000;2023-11-21T12:51:53;13.30;99.90
70762;DHT22;58360;0.000;0.000;2023-11-21T12:54:19;13.30;99.90
70762;DHT22;58360;0.000;0.000;2023-11-21T12:56:45;13.30;99.90
70762;DHT22;58360;0.000;0.000;2023-11-21T12:59:12;13.20;99.90
70762;DHT22;58360;0.000;0.000;2023-11-21T13:01:41;13.30;99.90
70762;DHT22;58360;0.000;0.000;2023-11-21T13:04:07;13.20;99.90
70762;DHT22;58360;0.000;0.000;2023-11-21T13:06:32;13.20;99.90
70762;DHT22;58360;0.000;0.000;2023-11-21T13:09:03;13.20;99.90
70762;DHT22;58360;0.000;0.000;2023-11-21T13:11:33;13.10;99.90
70762;DHT22;58360;0.000;0.000;2023-11-21T13:13:59;12.90;99.90
70762;DHT22;58360;0.000;0.000;2023-11-21T13:16:26;12.70;99.90
70762;DHT22;58360;0.000;0.000;2023-11-21T13:18:51;12.70;99.90
70762;DHT22;58360;0.000;0.000;2023-11-21T13:21:17;12.60;99.90
70762;DHT22;58360;0.000;0.000;2023-11-21T13:23:43;12.50;99.90
70762;DHT22;58360;0.000;0.000;2023-11-21T13:26:10;12.60;99.90
70762;DHT22;58360;0.000;0.000;2023-11-21T13:28:37;12.50;99.90
70762;DHT22;58360;0.000;0.000;2023-11-21T13:31:03;12.50;99.90
70762;DHT22;58360;0.000;0.000;2023-11-21T13:33:40;12.60;99.90
70762;DHT22;58360;0.000;0.000;2023-11-21T13:36:08;12.60;99.90
70762;DHT22;58360;0.000;0.000;2023-11-21T13:38:34;12.60;99.90
70762;DHT22;58360;0.000;0.000;2023-11-21T13:41:01;12.50;99.90
70762;DHT22;58360;0.000;0.000;2023-11-21T13:43:26;12.50;99.90
70762;DHT22;58360;0.000;0.000;2023-11-21T13:45:54;12.50;99.90
70762;DHT22;58360;0.000;0.000;2023-11-21T13:48:29;12.60;99.90
70762;DHT22;58360;0.000;0.000;2023-11-21T13:51:06;12.60;99.90
70762;DHT22;58360;0.000;0.000;2023-11-21T13:53:43;12.70;99.90
70762;DHT22;58360;0.000;0.000;2023-11-21T13:56:09;12.70;99.90
70762;DHT22;58360;0.000;0.000;2023-11-21T13:58:35;12.70;99.90
70762;DHT22;58360;0.000;0.000;2023-11-21T14:01:26;12.80;99.90
70762;DHT22;58360;0.000;0.000;2023-11-21T14:06:26;13.00;99.90
70762;DHT22;58360;0.000;0.000;2023-11-21T14:09:00;12.80;99.90
70762;DHT22;58360;0.000;0.000;2023-11-21T14:11:30;12.80;99.90
70762;DHT22;58360;0.000;0.000;2023-11-21T14:13:55;12.60;99.90
70762;DHT22;58360;0.000;0.000;2023-11-21T14:16:21;12.60;99.90
70762;DHT22;58360;0.000;0.000;2023-11-21T14:18:48;12.60;99.90
70762;DHT22;58360;0.000;0.000;2023-11-21T14:21:27;12.50;99.90
70762;DHT22;58360;0.000;0.000;2023-11-21T14:23:52;12.60;99.90
70762;DHT22;58360;0.000;0.000;2023-11-21T14:26:20;12.60;99.90
70762;DHT22;58360;0.000;0.000;2023-11-21T14:28:46;12.60;99.90
70762;DHT22;58360;0.000;0.000;2023-11-21T14:31:14;12.50;99.90
70762;DHT22;58360;0.000;0.000;2023-11-21T14:33:43;12.40;99.90
70762;DHT22;58360;0.000;0.000;2023-11-21T14:36:09;12.40;99.90
70762;DHT22;58360;0.000;0.000;2023-11-21T14:38:38;12.30;99.90
70762;DHT22;58360;0.000;0.000;2023-11-21T14:41:05;12.20;99.90
70762;DHT22;58360;0.000;0.000;2023-11-21T14:43:34;12.20;99.90
70762;DHT22;58360;0.000;0.000;2023-11-21T14:46:00;12.20;99.90
70762;DHT22;58360;0.000;0.000;2023-11-21T14:48:27;12.10;99.90
70762;DHT22;58360;0.000;0.000;2023-11-21T14:51:10;12.10;99.90
70762;DHT22;58360;0.000;0.000;2023-11-21T14:53:55;12.20;99.90
70762;DHT22;58360;0.000;0.000;2023-11-21T14:56:25;12.10;99.90
70762;DHT22;58360;0.000;0.000;2023-11-21T14:58:56;12.00;99.90
70762;DHT22;58360;0.000;0.000;2023-11-21T15:01:23;12.00;99.90
70762;DHT22;58360;0.000;0.000;2023-11-21T15:04:10;12.00;99.90
70762;DHT22;58360;0.000;0.000;2023-11-21T15:06:49;12.00;99.90
70762;DHT22;58360;0.000;0.000;2023-11-21T15:09:15;12.00;99.90
70762;DHT22;58360;0.000;0.000;2023-11-21T15:11:40;12.00;99.90
70762;DHT22;58360;0.000;0.000;2023-11-21T15:14:07;12.00;99.90
70762;DHT22;58360;0.000;0.000;2023-11-21T15:16:37;12.00;99.90
70762;DHT22;58360;0.000;0.000;2023-11-21T15:19:05;11.90;99.90
70762;DHT22;58360;0.000;0.000;2023-11-21T15:21:31;12.00;99.90
70762;DHT22;58360;0.000;0.000;2023-11-21T15:23:58;11.90;99.90
70762;DHT22;58360;0.000;0.000;2023-11-21T15:26:23;12.00;99.90
70762;DHT22;58360;0.000;0.000;2023-11-21T15:28:49;11.90;99.90
70762;DHT22;58360;0.000;0.000;2023-11-21T15:31:14;11.90;99.90
70762;DHT22;58360;0.000;0.000;2023-11-21T15:33:42;11.80;99.90
70762;DHT22;58360;0.000;0.000;2023-11-21T15:36:08;11.80;99.90
70762;DHT22;58360;0.000;0.000;2023-11-21T15:38:35;11.70;99.90
70762;DHT22;58360;0.000;0.000;2023-11-21T15:41:03;11.70;99.90
70762;DHT22;58360;0.000;0.000;2023-11-21T15:43:28;11.60;99.90
70762;DHT22;58360;0.000;0.000;2023-11-21T15:45:54;11.70;99.90
70762;DHT22;58360;0.000;0.000;2023-11-21T15:48:21;11.60;99.90
70762;DHT22;58360;0.000;0.000;2023-11-21T15:50:46;11.70;99.90
70762;DHT22;58360;0.000;0.000;2023-11-21T15:53:12;11.80;99.90
70762;DHT22;58360;0.000;0.000;2023-11-21T15:55:38;11.70;99.90
70762;DHT22;58360;0.000;0.000;2023-11-21T15:58:08;11.60;99.90